Terminal Aerodrome Forecast
Issued by NWS Nashville, TN

Home | Current Version | Previous Version | Text Only | Print | Product List | Glossary On
Versions: 1 2 3 4 5 6 7 8 9 10 11 12 13 14 15 16 17 18
000
FTUS44 KOHX 211800 AAA
TAFCSV
TAF AMD
KCSV 211818Z 2118/2218 26010G18KT P6SM VCTS BKN025CB BKN045
      TEMPO 2118/2120 3SM TSRA BR OVC020CB
     FM212000 29010G20KT P6SM BKN040
     FM220000 33003KT P6SM SKC
     FM221400 01011KT P6SM FEW040=

USA.gov is the U.S. government's official web portal to all federal, state and local government web resources and services.